Terminal Aerodrome Forecast
Issued by NWS Wilmington, OH

Home | Current Version | Previous Version | Text Only | Print | Product List | Glossary On
Versions: 1 2 3 4 5 6 7 8 9 10 11 12 13 14 15 16 17 18
000
FTUS41 KILN 012300
TAFCMH
TAF
KCMH 012330Z 0200/0224 VRB04KT 1 1/2SM BR OVC004
     FM020500 29005KT 3SM BR OVC015
     FM020700 29008KT P6SM BKN015
     FM021400 31004KT P6SM SCT015
      TEMPO 0214/0218 BKN015=

USA.gov is the U.S. government's official web portal to all federal, state and local government web resources and services.